createdAt,value
2023-12-23T00:00:51.408Z,96209.98
2023-12-23T00:03:43.296Z,96209.54
2023-12-23T00:06:15.702Z,96211.46
2023-12-23T00:08:47.629Z,96216.33
2023-12-23T00:11:19.417Z,96217.77
2023-12-23T00:13:51.217Z,96214.37
2023-12-23T00:16:25.308Z,96210.54
2023-12-23T00:18:57.260Z,96221.96
2023-12-23T00:21:29.090Z,96223.64
2023-12-23T00:24:00.866Z,96219.59
2023-12-23T00:26:32.748Z,96216.59
2023-12-23T00:29:04.773Z,96221.48
2023-12-23T00:31:36.633Z,96225.17
2023-12-23T00:34:08.518Z,96236.98
2023-12-23T00:36:40.278Z,96238.59
2023-12-23T00:39:12.125Z,96237.31
2023-12-23T00:41:44.363Z,96237.05
2023-12-23T00:44:16.352Z,96243.36
2023-12-23T00:46:48.268Z,96243.16
2023-12-23T00:49:20.286Z,96247.56
2023-12-23T00:51:52.126Z,96245.04
2023-12-23T00:54:24.643Z,96243.71
2023-12-23T00:56:56.689Z,96233.35
2023-12-23T00:59:28.480Z,96238.59
2023-12-23T01:02:00.360Z,96235.86
2023-12-23T01:04:32.278Z,96240.64
2023-12-23T01:07:04.049Z,96242.10
2023-12-23T01:09:35.838Z,96243.70
2023-12-23T01:12:09.151Z,96237.29
2023-12-23T01:14:41.073Z,96231.17
2023-12-23T01:17:13.031Z,96234.01
2023-12-23T01:19:44.991Z,96235.06
2023-12-23T01:22:16.890Z,96229.84
2023-12-23T01:24:48.639Z,96232.88
2023-12-23T01:27:22.957Z,96249.92
2023-12-23T01:29:54.835Z,96252.40
2023-12-23T01:32:26.851Z,96257.02
2023-12-23T01:34:58.781Z,96251.89
2023-12-23T01:37:30.854Z,96256.52
2023-12-23T01:40:02.658Z,96259.36
2023-12-23T01:42:34.429Z,96260.11
2023-12-23T01:45:07.095Z,96261.59
2023-12-23T01:47:42.449Z,96251.04
2023-12-23T01:50:15.215Z,96257.91
2023-12-23T01:52:47.595Z,96265.18
2023-12-23T01:55:19.766Z,96270.38
2023-12-23T01:57:51.851Z,96278.70
2023-12-23T02:00:24.280Z,96283.65
2023-12-23T02:02:58.553Z,96283.52
2023-12-23T02:05:30.753Z,96285.06
2023-12-23T02:08:02.914Z,96290.83
2023-12-23T02:10:35.038Z,96297.88
2023-12-23T02:13:16.378Z,96297.84
2023-12-23T02:15:51.140Z,96297.63
2023-12-23T02:18:26.802Z,96286.27
2023-12-23T02:21:00.383Z,96292.70
2023-12-23T02:23:32.243Z,96285.73
2023-12-23T02:26:06.168Z,96280.98
2023-12-23T02:28:38.263Z,96278.06
2023-12-23T02:31:10.879Z,96282.02
2023-12-23T02:33:42.752Z,96294.53
2023-12-23T02:36:14.637Z,96301.96
2023-12-23T02:38:46.429Z,96304.41
2023-12-23T02:41:18.574Z,96310.63
2023-12-23T02:43:50.345Z,96319.38
2023-12-23T02:46:23.246Z,96318.71
2023-12-23T02:48:55.303Z,96328.21
2023-12-23T02:51:27.087Z,96326.35
2023-12-23T02:53:58.925Z,96321.64
2023-12-23T02:56:32.145Z,96323.08
2023-12-23T02:59:04.037Z,96328.83
2023-12-23T03:01:35.814Z,96331.21
2023-12-23T03:04:07.658Z,96333.34
2023-12-23T03:06:39.414Z,96334.19
2023-12-23T03:09:11.221Z,96329.70
2023-12-23T03:11:43.071Z,96336.14
2023-12-23T03:14:15.165Z,96345.64
2023-12-23T03:16:47.239Z,96354.02
2023-12-23T03:19:19.009Z,96357.59
2023-12-23T03:21:50.882Z,96371.24
2023-12-23T03:24:22.877Z,96374.93
2023-12-23T03:26:54.806Z,96383.32
2023-12-23T03:29:26.641Z,96386.79
2023-12-23T03:31:58.481Z,96391.91
2023-12-23T03:34:30.418Z,96394.98
2023-12-23T03:37:02.208Z,96394.21
2023-12-23T03:39:33.961Z,96404.77
2023-12-23T03:42:06.239Z,96413.30
2023-12-23T03:44:38.182Z,96416.73
2023-12-23T03:47:10.521Z,96425.67
2023-12-23T03:49:42.751Z,96426.15
2023-12-23T03:52:14.644Z,96428.58
2023-12-23T03:54:46.557Z,96431.96
2023-12-23T03:57:18.414Z,96433.29
2023-12-23T03:59:50.358Z,96436.73
2023-12-23T04:02:22.121Z,96438.15
2023-12-23T04:04:53.974Z,96440.75
2023-12-23T04:07:26.051Z,96442.61
2023-12-23T04:09:57.813Z,96446.23
2023-12-23T04:12:29.766Z,96453.02
2023-12-23T04:15:02.001Z,96457.67
2023-12-23T04:17:33.953Z,96455.23
2023-12-23T04:20:06.493Z,96466.08
2023-12-23T04:22:38.608Z,96473.09
2023-12-23T04:25:11.446Z,96477.33
2023-12-23T04:27:43.261Z,96480.92
2023-12-23T04:30:15.989Z,96492.96
2023-12-23T04:32:48.610Z,96496.19
2023-12-23T04:35:20.886Z,96499.90
2023-12-23T04:37:52.753Z,96511.15
2023-12-23T04:40:24.808Z,96521.22
2023-12-23T04:42:56.584Z,96529.39
2023-12-23T04:45:28.363Z,96539.38
2023-12-23T04:48:00.372Z,96547.46
2023-12-23T04:50:32.179Z,96552.51
2023-12-23T04:53:04.058Z,96558.80
2023-12-23T04:55:35.887Z,96561.39
2023-12-23T04:58:11.559Z,96565.22
2023-12-23T05:00:43.373Z,96574.92
2023-12-23T05:03:15.156Z,96588.52
2023-12-23T05:05:47.225Z,96594.44
2023-12-23T05:08:19.077Z,96608.33
2023-12-23T05:10:50.963Z,96620.70
2023-12-23T05:13:24.432Z,96632.31
2023-12-23T05:15:54.713Z,96650.00
2023-12-23T05:18:26.609Z,96655.52
2023-12-23T05:20:58.649Z,96660.09
2023-12-23T05:23:30.445Z,96667.73
2023-12-23T05:26:02.303Z,96680.42
2023-12-23T05:28:34.228Z,96685.31
2023-12-23T05:31:06.267Z,96688.08
2023-12-23T05:33:38.223Z,96699.99
2023-12-23T05:36:11.522Z,96707.64
2023-12-23T05:38:43.290Z,96717.81
2023-12-23T05:41:15.185Z,96725.80
2023-12-23T05:43:47.454Z,96730.23
2023-12-23T05:46:19.358Z,96733.37
2023-12-23T05:48:51.158Z,96743.95
2023-12-23T05:51:23.008Z,96750.44
2023-12-23T05:53:55.009Z,96759.57
2023-12-23T05:56:26.854Z,96764.69
2023-12-23T05:58:58.761Z,96764.71
2023-12-23T06:01:30.583Z,96766.39
2023-12-23T06:04:02.559Z,96769.11
2023-12-23T06:06:34.423Z,96770.09
2023-12-23T06:09:07.776Z,96774.05
2023-12-23T06:11:42.309Z,96786.05
2023-12-23T06:14:14.510Z,96785.69
2023-12-23T06:16:46.429Z,96791.59
2023-12-23T06:19:18.245Z,96795.80
2023-12-23T06:21:50.060Z,96806.05
2023-12-23T06:24:21.828Z,96812.07
2023-12-23T06:26:53.668Z,96817.80
2023-12-23T06:29:25.501Z,96815.94
2023-12-23T06:31:58.101Z,96825.49
2023-12-23T06:34:29.932Z,96832.26
2023-12-23T06:37:01.706Z,96842.71
2023-12-23T06:39:33.792Z,96853.86
2023-12-23T06:42:05.951Z,96854.93
2023-12-23T06:44:37.761Z,96858.45
2023-12-23T06:47:09.906Z,96861.79
2023-12-23T06:49:41.826Z,96864.37
2023-12-23T06:52:13.806Z,96872.52
2023-12-23T06:54:45.632Z,96880.52
2023-12-23T06:57:17.507Z,96879.84
2023-12-23T06:59:49.745Z,96884.90
2023-12-23T07:02:21.572Z,96894.29
2023-12-23T07:04:53.694Z,96896.85
2023-12-23T07:07:25.870Z,96899.98
2023-12-23T07:10:04.732Z,96907.17
2023-12-23T07:12:39.505Z,96911.33
2023-12-23T07:15:13.153Z,96916.48
2023-12-23T07:17:45.166Z,96921.66
2023-12-23T07:20:17.392Z,96929.15
2023-12-23T07:22:49.534Z,96928.21
2023-12-23T07:25:21.804Z,96930.52
2023-12-23T07:27:53.568Z,96935.16
2023-12-23T07:30:25.444Z,96935.88
2023-12-23T07:32:57.664Z,96942.86
2023-12-23T07:35:29.759Z,96944.63
2023-12-23T07:38:01.588Z,96942.38
2023-12-23T07:40:36.077Z,96937.45
2023-12-23T07:43:08.531Z,96939.23
2023-12-23T07:45:40.509Z,96943.70
2023-12-23T07:48:12.778Z,96945.38
2023-12-23T07:50:44.757Z,96947.45
2023-12-23T07:53:16.608Z,96948.90
2023-12-23T07:55:49.166Z,96944.80
2023-12-23T07:58:21.083Z,96946.39
2023-12-23T08:00:52.923Z,96953.55
2023-12-23T08:03:24.766Z,96949.45
2023-12-23T08:05:56.676Z,96944.52
2023-12-23T08:08:28.657Z,96942.58
2023-12-23T08:11:00.885Z,96948.30
2023-12-23T08:13:33.098Z,96945.08
2023-12-23T08:16:05.165Z,96952.54
2023-12-23T08:18:37.096Z,96945.97
2023-12-23T08:21:09.562Z,96945.58
2023-12-23T08:23:41.370Z,96936.70
2023-12-23T08:26:13.190Z,96942.66
2023-12-23T08:28:47.012Z,96938.02
2023-12-23T08:31:19.087Z,96937.46
2023-12-23T08:33:50.979Z,96930.30
2023-12-23T08:36:23.887Z,96936.14
2023-12-23T08:38:55.881Z,96933.05
2023-12-23T08:41:28.037Z,96940.98
2023-12-23T08:43:59.866Z,96938.89
2023-12-23T08:46:32.759Z,96934.23
2023-12-23T08:49:05.828Z,96931.89
2023-12-23T08:51:39.440Z,96928.04
2023-12-23T08:54:11.179Z,96927.75
2023-12-23T08:56:42.997Z,96936.25
2023-12-23T08:59:14.827Z,96941.18
2023-12-23T09:01:46.744Z,96937.49
2023-12-23T09:04:19.262Z,96941.56
2023-12-23T09:06:51.060Z,96935.30
2023-12-23T09:09:22.937Z,96940.05
2023-12-23T09:11:54.744Z,96935.45
2023-12-23T09:14:26.717Z,96935.52
2023-12-23T09:16:58.683Z,96931.30
2023-12-23T09:19:30.527Z,96941.90
2023-12-23T09:22:02.376Z,96937.85
2023-12-23T09:24:34.255Z,96940.47
2023-12-23T09:27:07.058Z,96941.26
2023-12-23T09:29:38.904Z,96940.15
2023-12-23T09:32:10.789Z,96935.50
2023-12-23T09:34:42.581Z,96938.71
2023-12-23T09:37:14.407Z,96935.98
2023-12-23T09:39:46.184Z,96938.21
2023-12-23T09:42:18.820Z,96940.88
2023-12-23T09:44:50.043Z,96938.34
2023-12-23T09:47:21.945Z,96934.02
2023-12-23T09:49:53.953Z,96927.30
2023-12-23T09:52:26.049Z,96921.30
2023-12-23T09:55:03.402Z,96920.56
2023-12-23T09:57:37.441Z,96913.39
2023-12-23T10:00:12.088Z,96911.29
2023-12-23T10:02:43.892Z,96908.78
2023-12-23T10:05:16.470Z,96908.80
2023-12-23T10:07:48.363Z,96903.95
2023-12-23T10:10:20.685Z,96902.90
2023-12-23T10:12:53.323Z,96905.66
2023-12-23T10:15:25.426Z,96900.42
2023-12-23T10:17:58.307Z,96895.02
2023-12-23T10:20:30.295Z,96886.75
2023-12-23T10:23:02.138Z,96890.33
2023-12-23T10:25:34.048Z,96885.85
2023-12-23T10:28:08.602Z,96871.52
2023-12-23T10:30:48.324Z,96865.76
2023-12-23T10:33:23.787Z,96862.27
2023-12-23T10:35:59.831Z,96863.35
2023-12-23T10:38:32.911Z,96859.90
2023-12-23T10:41:13.583Z,96857.09
2023-12-23T10:43:46.191Z,96849.02
2023-12-23T10:46:19.094Z,96846.89
2023-12-23T10:48:52.203Z,96850.78
2023-12-23T10:51:25.260Z,96845.52
2023-12-23T10:53:59.263Z,96842.72
2023-12-23T10:56:31.899Z,96833.55
2023-12-23T10:59:04.336Z,96832.11
2023-12-23T11:01:38.187Z,96824.27
2023-12-23T11:04:10.254Z,96825.89
2023-12-23T11:06:46.001Z,96822.73
2023-12-23T11:09:19.563Z,96825.27
2023-12-23T11:11:50.180Z,96822.67
2023-12-23T11:14:22.105Z,96816.04
2023-12-23T11:16:57.425Z,96811.23
2023-12-23T11:19:29.774Z,96809.58
2023-12-23T11:22:24.608Z,96807.39
2023-12-23T11:24:56.956Z,96804.34
2023-12-23T11:27:36.356Z,96794.80
2023-12-23T11:30:10.223Z,96799.75
2023-12-23T11:32:45.197Z,96804.70
2023-12-23T11:35:17.202Z,96807.13
2023-12-23T11:37:57.087Z,96804.73
2023-12-23T11:40:31.322Z,96806.13
2023-12-23T11:43:04.008Z,96807.94
2023-12-23T11:45:36.140Z,96807.16
2023-12-23T11:48:09.621Z,96803.33
2023-12-23T11:50:39.928Z,96800.24
2023-12-23T11:53:14.041Z,96795.02
2023-12-23T11:55:46.779Z,96793.98
2023-12-23T11:58:18.905Z,96800.63
2023-12-23T12:00:55.382Z,96798.08
2023-12-23T12:03:28.492Z,96794.67
2023-12-23T12:06:01.606Z,96790.14
2023-12-23T12:08:33.566Z,96794.54
2023-12-23T12:11:05.627Z,96797.65
2023-12-23T12:13:38.788Z,96798.77
2023-12-23T12:16:10.780Z,96800.95
2023-12-23T12:18:44.505Z,96798.51
2023-12-23T12:21:16.534Z,96791.96
2023-12-23T12:23:48.407Z,96787.61
2023-12-23T12:26:21.224Z,96785.02
2023-12-23T12:28:54.078Z,96787.40
2023-12-23T12:31:26.013Z,96791.55
2023-12-23T12:33:58.152Z,96787.57
2023-12-23T12:36:30.306Z,96790.77
2023-12-23T12:39:02.090Z,96788.27
2023-12-23T12:41:38.408Z,96785.46
2023-12-23T12:44:10.827Z,96788.70
2023-12-23T12:46:42.579Z,96785.03
2023-12-23T12:49:16.453Z,96790.09
2023-12-23T12:51:48.379Z,96788.45
2023-12-23T12:54:21.689Z,96793.52
2023-12-23T12:56:54.029Z,96790.53
2023-12-23T12:59:25.896Z,96795.73
2023-12-23T13:01:57.752Z,96797.15
2023-12-23T13:04:29.524Z,96805.19
2023-12-23T13:07:01.270Z,96801.08
2023-12-23T13:09:32.980Z,96799.49
2023-12-23T13:12:05.595Z,96800.64
2023-12-23T13:14:37.855Z,96808.78
2023-12-23T13:17:09.771Z,96811.34
2023-12-23T13:19:41.579Z,96811.48
2023-12-23T13:22:13.385Z,96806.92
2023-12-23T13:24:45.105Z,96809.71
2023-12-23T13:27:18.644Z,96809.98
2023-12-23T13:29:49.205Z,96811.76
2023-12-23T13:32:20.952Z,96814.92
2023-12-23T13:34:52.957Z,96823.66
2023-12-23T13:37:24.704Z,96821.77
2023-12-23T13:39:56.450Z,96818.80
2023-12-23T13:42:28.440Z,96825.48
2023-12-23T13:45:01.562Z,96826.27
2023-12-23T13:47:34.673Z,96832.77
2023-12-23T13:50:08.676Z,96835.20
2023-12-23T13:52:41.393Z,96835.65
2023-12-23T13:55:13.478Z,96836.86
2023-12-23T13:57:45.242Z,96844.81
2023-12-23T14:00:18.570Z,96845.64
2023-12-23T14:02:50.590Z,96850.91
2023-12-23T14:05:22.963Z,96850.20
2023-12-23T14:07:54.946Z,96853.73
2023-12-23T14:10:26.734Z,96855.16
2023-12-23T14:12:58.831Z,96859.27
2023-12-23T14:15:30.592Z,96858.93
2023-12-23T14:18:04.452Z,96861.51
2023-12-23T14:20:36.343Z,96865.00
2023-12-23T14:23:08.867Z,96869.41
2023-12-23T14:25:40.705Z,96869.36
2023-12-23T14:28:13.723Z,96871.46
2023-12-23T14:30:46.606Z,96875.79
2023-12-23T14:33:18.552Z,96881.80
2023-12-23T14:35:50.595Z,96884.10
2023-12-23T14:38:22.395Z,96887.21
2023-12-23T14:40:54.453Z,96894.52
2023-12-23T14:43:26.267Z,96899.52
2023-12-23T14:45:58.156Z,96898.20
2023-12-23T14:48:30.048Z,96906.60
2023-12-23T14:51:02.183Z,96904.08
2023-12-23T14:53:34.102Z,96910.29
2023-12-23T14:56:06.278Z,96913.77
2023-12-23T14:58:38.140Z,96917.62
2023-12-23T15:01:10.304Z,96914.91
2023-12-23T15:03:42.121Z,96917.36
2023-12-23T15:06:14.018Z,96921.20
2023-12-23T15:08:45.899Z,96922.27
2023-12-23T15:11:17.701Z,96926.23
2023-12-23T15:13:49.983Z,96934.80
2023-12-23T15:16:21.781Z,96942.73
2023-12-23T15:18:56.072Z,96941.98
2023-12-23T15:21:28.947Z,96942.02
2023-12-23T15:24:00.793Z,96949.19
2023-12-23T15:26:33.118Z,96950.65
2023-12-23T15:29:05.569Z,96958.50
2023-12-23T15:31:37.390Z,96961.36
2023-12-23T15:34:09.272Z,96966.20
2023-12-23T15:36:41.103Z,96978.64
2023-12-23T15:39:13.966Z,96980.02
2023-12-23T15:41:45.765Z,96982.91
2023-12-23T15:44:17.571Z,96992.80
2023-12-23T15:46:49.498Z,96995.37
2023-12-23T15:49:21.320Z,96999.47
2023-12-23T15:51:53.103Z,97001.29
2023-12-23T15:54:24.943Z,97003.19
2023-12-23T15:56:57.697Z,97000.41
2023-12-23T15:59:29.519Z,97003.87
2023-12-23T16:02:04.042Z,97010.48
2023-12-23T16:04:36.191Z,97012.40
2023-12-23T16:07:08.191Z,97020.60
2023-12-23T16:09:39.981Z,97020.23
2023-12-23T16:12:11.968Z,97029.61
2023-12-23T16:14:43.832Z,97031.13
2023-12-23T16:17:15.622Z,97036.27
2023-12-23T16:19:47.517Z,97042.97
2023-12-23T16:22:19.305Z,97042.09
2023-12-23T16:24:51.065Z,97045.61
2023-12-23T16:27:22.918Z,97046.61
2023-12-23T16:29:54.699Z,97054.85
2023-12-23T16:32:26.639Z,97054.84
2023-12-23T16:34:59.045Z,97058.84
2023-12-23T16:37:30.975Z,97065.45
2023-12-23T16:40:03.376Z,97065.31
2023-12-23T16:42:37.610Z,97071.16
2023-12-23T16:45:15.720Z,97076.91
2023-12-23T16:47:47.675Z,97081.33
2023-12-23T16:50:19.762Z,97083.55
2023-12-23T16:52:51.814Z,97084.71
2023-12-23T16:55:23.792Z,97088.98
2023-12-23T16:57:56.235Z,97085.73
2023-12-23T17:00:28.332Z,97083.39
2023-12-23T17:03:00.073Z,97089.86
2023-12-23T17:05:32.907Z,97094.30
2023-12-23T17:08:04.888Z,97099.02
2023-12-23T17:10:38.970Z,97102.45
2023-12-23T17:13:10.771Z,97108.98
2023-12-23T17:15:42.609Z,97115.69
2023-12-23T17:18:14.475Z,97117.70
2023-12-23T17:20:46.282Z,97120.30
2023-12-23T17:23:18.182Z,97121.19
2023-12-23T17:25:49.966Z,97125.04
2023-12-23T17:28:21.928Z,97123.63
2023-12-23T17:30:53.932Z,97131.24
2023-12-23T17:33:25.837Z,97130.16
2023-12-23T17:35:57.979Z,97129.16
2023-12-23T17:38:29.816Z,97132.12
2023-12-23T17:41:01.855Z,97137.16
2023-12-23T17:43:33.716Z,97140.53
2023-12-23T17:46:06.727Z,97140.83
2023-12-23T17:48:38.574Z,97143.85
2023-12-23T17:51:10.869Z,97156.93
2023-12-23T17:53:42.729Z,97163.48
2023-12-23T17:56:14.816Z,97163.95
2023-12-23T17:58:46.632Z,97173.20
2023-12-23T18:01:18.475Z,97173.70
2023-12-23T18:03:50.452Z,97171.76
2023-12-23T18:06:22.233Z,97166.40
2023-12-23T18:08:54.080Z,97168.70
2023-12-23T18:11:25.945Z,97172.80
2023-12-23T18:13:57.819Z,97173.04
2023-12-23T18:16:29.690Z,97172.23
2023-12-23T18:19:01.495Z,97175.08
2023-12-23T18:21:33.285Z,97177.17
2023-12-23T18:24:05.404Z,97175.56
2023-12-23T18:26:37.318Z,97180.11
2023-12-23T18:29:09.194Z,97180.89
2023-12-23T18:31:41.185Z,97183.86
2023-12-23T18:34:13.154Z,97191.55
2023-12-23T18:36:44.957Z,97194.48
2023-12-23T18:39:16.799Z,97202.02
2023-12-23T18:41:48.573Z,97200.58
2023-12-23T18:44:22.080Z,97206.34
2023-12-23T18:46:54.923Z,97208.38
2023-12-23T18:49:27.259Z,97206.27
2023-12-23T18:51:59.015Z,97210.17
2023-12-23T18:54:30.778Z,97216.71
2023-12-23T18:57:05.221Z,97217.81
2023-12-23T18:59:37.041Z,97216.65
2023-12-23T19:02:10.594Z,97215.39
2023-12-23T19:04:41.381Z,97223.25
2023-12-23T19:07:13.171Z,97224.17
2023-12-23T19:09:45.513Z,97218.80
2023-12-23T19:12:17.286Z,97215.45
2023-12-23T19:14:49.345Z,97217.38
2023-12-23T19:17:21.296Z,97217.02
2023-12-23T19:19:53.148Z,97222.89
2023-12-23T19:22:25.007Z,97224.27
2023-12-23T19:24:56.714Z,97229.36
2023-12-23T19:27:28.480Z,97236.99
2023-12-23T19:30:00.288Z,97232.90
2023-12-23T19:32:32.232Z,97236.03
2023-12-23T19:35:04.250Z,97240.58
2023-12-23T19:37:36.665Z,97244.30
2023-12-23T19:40:11.201Z,97251.19
2023-12-23T19:42:43.081Z,97250.34
2023-12-23T19:45:15.456Z,97255.44
2023-12-23T19:47:47.499Z,97259.59
2023-12-23T19:50:20.301Z,97264.31
2023-12-23T19:52:54.558Z,97264.22
2023-12-23T19:55:26.661Z,97265.42
2023-12-23T19:57:58.632Z,97260.49
2023-12-23T20:00:30.597Z,97265.87
2023-12-23T20:03:02.697Z,97279.45
2023-12-23T20:05:36.974Z,97281.62
2023-12-23T20:08:09.698Z,97288.67
2023-12-23T20:10:41.935Z,97298.94
2023-12-23T20:13:13.997Z,97292.52
2023-12-23T20:15:46.865Z,97297.52
2023-12-23T20:18:18.921Z,97300.83
2023-12-23T20:20:50.927Z,97309.93
2023-12-23T20:23:22.834Z,97315.35
2023-12-23T20:25:54.901Z,97312.66
2023-12-23T20:28:26.769Z,97315.81
2023-12-23T20:30:58.597Z,97317.97
2023-12-23T20:33:30.559Z,97320.27
2023-12-23T20:36:04.345Z,97328.95
2023-12-23T20:38:36.530Z,97332.89
2023-12-23T20:41:08.671Z,97337.25
2023-12-23T20:43:40.625Z,97343.55
2023-12-23T20:46:14.106Z,97336.53
2023-12-23T20:48:47.328Z,97337.86
2023-12-23T20:51:19.520Z,97336.83
2023-12-23T20:53:51.892Z,97345.57
2023-12-23T20:56:25.994Z,97337.21
2023-12-23T20:58:58.303Z,97345.58
2023-12-23T21:01:30.115Z,97347.75
2023-12-23T21:04:03.608Z,97353.77
2023-12-23T21:06:35.813Z,97356.59
2023-12-23T21:09:09.259Z,97361.04
2023-12-23T21:11:41.028Z,97369.30
2023-12-23T21:14:12.876Z,97366.92
2023-12-23T21:16:44.989Z,97366.34
2023-12-23T21:19:16.809Z,97371.66
2023-12-23T21:21:50.643Z,97375.78
2023-12-23T21:24:23.547Z,97375.58
2023-12-23T21:26:55.322Z,97384.54
2023-12-23T21:29:27.465Z,97386.92
2023-12-23T21:31:59.363Z,97380.27
2023-12-23T21:34:31.303Z,97382.91
2023-12-23T21:37:03.158Z,97382.70
2023-12-23T21:39:35.204Z,97383.61
2023-12-23T21:42:07.513Z,97387.24
2023-12-23T21:44:39.418Z,97388.80
2023-12-23T21:47:12.378Z,97390.10
2023-12-23T21:49:44.216Z,97386.58
2023-12-23T21:52:16.427Z,97385.30
2023-12-23T21:54:48.266Z,97385.76
2023-12-23T21:57:20.827Z,97382.98
2023-12-23T21:59:52.695Z,97386.86
2023-12-23T22:02:24.709Z,97389.12
2023-12-23T22:04:56.664Z,97389.16
2023-12-23T22:07:28.528Z,97389.54
2023-12-23T22:10:00.466Z,97397.16
2023-12-23T22:12:32.232Z,97399.00
2023-12-23T22:15:03.996Z,97396.72
2023-12-23T22:17:35.943Z,97405.86
2023-12-23T22:20:09.158Z,97409.29
2023-12-23T22:22:40.974Z,97409.96
2023-12-23T22:25:12.940Z,97412.88
2023-12-23T22:27:44.785Z,97407.88
2023-12-23T22:30:17.095Z,97410.97
2023-12-23T22:32:49.146Z,97416.84
2023-12-23T22:35:21.314Z,97420.46
2023-12-23T22:37:53.261Z,97421.31
2023-12-23T22:40:25.148Z,97423.89
2023-12-23T22:42:56.922Z,97420.73
2023-12-23T22:45:28.936Z,97412.73
2023-12-23T22:48:02.180Z,97420.89
2023-12-23T22:50:34.075Z,97423.94
2023-12-23T22:53:06.115Z,97431.56
2023-12-23T22:55:37.912Z,97431.09
2023-12-23T22:58:10.145Z,97441.16
2023-12-23T23:00:42.524Z,97443.04
2023-12-23T23:03:14.442Z,97436.09
2023-12-23T23:05:46.374Z,97444.75
2023-12-23T23:08:18.236Z,97440.63
2023-12-23T23:10:49.987Z,97441.64
2023-12-23T23:13:21.732Z,97444.77
2023-12-23T23:15:53.650Z,97450.30
2023-12-23T23:18:25.825Z,97452.51
2023-12-23T23:20:57.801Z,97454.23
2023-12-23T23:23:30.280Z,97452.93
2023-12-23T23:26:02.185Z,97447.23
2023-12-23T23:28:34.177Z,97451.98
2023-12-23T23:31:06.197Z,97448.16
2023-12-23T23:33:38.001Z,97445.69
2023-12-23T23:36:15.140Z,97446.52
2023-12-23T23:38:46.977Z,97445.66
2023-12-23T23:41:18.794Z,97444.48
2023-12-23T23:43:50.606Z,97441.02
2023-12-23T23:46:22.360Z,97443.96
2023-12-23T23:48:54.308Z,97446.23
2023-12-23T23:51:26.605Z,97438.79
2023-12-23T23:53:58.350Z,97439.15
2023-12-23T23:56:30.233Z,97443.86
2023-12-23T23:59:02.069Z,97449.21
